createdAt,value
2023-02-09T00:01:25.836Z,102165.50
2023-02-09T00:03:54.315Z,101977.72
2023-02-09T00:06:24.373Z,102157.50
2023-02-09T00:08:54.811Z,102141.47
2023-02-09T00:11:46.514Z,102143.28
2023-02-09T00:14:15.214Z,102133.09
2023-02-09T00:16:43.641Z,102120.44
2023-02-09T00:19:12.439Z,102121.34
2023-02-09T00:21:41.353Z,102085.16
2023-02-09T00:24:11.685Z,102129.09
2023-02-09T00:26:40.119Z,102087.38
2023-02-09T00:29:08.674Z,102104.28
2023-02-09T00:31:37.262Z,102098.59
2023-02-09T00:34:05.646Z,102099.50
2023-02-09T00:36:34.180Z,102055.97
2023-02-09T00:39:02.107Z,102084.66
2023-02-09T00:41:49.135Z,102084.66
2023-02-09T00:44:17.227Z,102084.38
2023-02-09T00:46:45.145Z,102065.53
2023-02-09T00:49:13.156Z,102079.34
2023-02-09T00:51:41.188Z,102081.41
2023-02-09T00:54:09.096Z,102044.44
2023-02-09T00:56:38.451Z,102044.16
2023-02-09T00:59:06.480Z,102051.38
2023-02-09T01:01:34.345Z,102045.94
2023-02-09T01:04:02.379Z,102032.09
2023-02-09T01:06:30.985Z,102039.56
2023-02-09T01:08:59.194Z,102031.28
2023-02-09T01:11:28.503Z,102013.59
2023-02-09T01:13:59.609Z,102029.19
2023-02-09T01:16:28.849Z,102027.88
2023-02-09T01:18:57.443Z,102021.72
2023-02-09T01:21:25.944Z,102039.78
2023-02-09T01:23:53.859Z,102003.88
2023-02-09T01:26:22.306Z,102025.81
2023-02-09T01:28:51.584Z,102016.25
2023-02-09T01:31:24.327Z,102000.59
2023-02-09T01:33:53.106Z,101977.13
2023-02-09T01:36:21.722Z,101990.13
2023-02-09T01:38:49.764Z,101975.16
2023-02-09T01:41:19.093Z,101970.13
2023-02-09T01:44:06.702Z,101967.44
2023-02-09T01:46:37.878Z,101969.34
2023-02-09T01:49:09.184Z,101951.41
2023-02-09T01:51:43.262Z,101974.66
2023-02-09T01:54:16.588Z,101967.81
2023-02-09T01:56:48.791Z,101941.06
2023-02-09T01:59:17.605Z,101954.50
2023-02-09T02:01:47.290Z,101955.94
2023-02-09T02:04:15.617Z,101953.09
2023-02-09T02:06:43.939Z,101903.88
2023-02-09T02:09:13.951Z,101904.31
2023-02-09T02:11:44.523Z,101927.00
2023-02-09T02:14:29.648Z,101886.88
2023-02-09T02:17:06.939Z,101891.56
2023-02-09T02:20:00.631Z,101878.75
2023-02-09T02:22:44.914Z,101896.03
2023-02-09T02:25:42.400Z,101878.94
2023-02-09T02:28:32.271Z,101881.78
2023-02-09T02:31:19.039Z,101884.13
2023-02-09T02:33:58.280Z,101874.97
2023-02-09T02:36:32.248Z,101891.41
2023-02-09T02:39:07.908Z,101888.69
2023-02-09T02:41:58.202Z,101846.28
2023-02-09T02:44:29.183Z,101885.88
2023-02-09T02:47:02.437Z,101868.66
2023-02-09T02:49:37.537Z,101867.53
2023-02-09T02:52:09.292Z,101862.09
2023-02-09T02:54:41.516Z,101850.63
2023-02-09T02:57:16.157Z,101845.19
2023-02-09T02:59:47.687Z,101839.13
2023-02-09T03:02:21.168Z,101840.81
2023-02-09T03:04:53.858Z,101840.69
2023-02-09T03:07:21.798Z,101833.97
2023-02-09T03:09:50.716Z,101833.06
2023-02-09T03:12:25.602Z,101823.50
2023-02-09T03:15:12.316Z,101823.50
2023-02-09T03:17:48.490Z,101813.94
2023-02-09T03:20:26.839Z,101816.41
2023-02-09T03:22:59.019Z,101813.81
2023-02-09T03:25:31.985Z,101794.44
2023-02-09T03:28:07.144Z,101793.38
2023-02-09T03:30:36.165Z,101786.75
2023-02-09T03:33:05.978Z,101796.31
2023-02-09T03:35:39.979Z,101794.88
2023-02-09T03:38:08.014Z,101786.56
2023-02-09T03:40:36.442Z,101790.19
2023-02-09T03:43:04.501Z,101784.09
2023-02-09T03:45:32.417Z,101780.63
2023-02-09T03:48:00.288Z,101780.72
2023-02-09T03:50:29.983Z,101778.16
2023-02-09T03:52:59.403Z,101752.66
2023-02-09T03:55:27.423Z,101749.53
2023-02-09T03:57:55.563Z,101771.97
2023-02-09T04:00:23.587Z,101774.44
2023-02-09T04:02:51.480Z,101763.72
2023-02-09T04:05:20.090Z,101739.63
2023-02-09T04:07:48.327Z,101732.66
2023-02-09T04:10:17.690Z,101732.47
2023-02-09T04:12:45.806Z,101728.06
2023-02-09T04:15:13.653Z,101713.34
2023-02-09T04:17:41.514Z,101707.59
2023-02-09T04:20:10.145Z,101713.22
2023-02-09T04:22:37.981Z,101717.50
2023-02-09T04:25:06.480Z,101706.69
2023-02-09T04:27:36.179Z,101721.75
2023-02-09T04:30:04.082Z,101707.00
2023-02-09T04:32:32.111Z,101714.25
2023-02-09T04:35:00.088Z,101714.13
2023-02-09T04:37:27.913Z,101717.50
2023-02-09T04:39:55.911Z,101717.38
2023-02-09T04:42:24.956Z,101691.16
2023-02-09T04:44:54.233Z,101698.38
2023-02-09T04:47:22.165Z,101696.75
2023-02-09T04:49:50.161Z,101678.47
2023-02-09T04:52:18.684Z,101667.50
2023-02-09T04:54:46.614Z,101646.38
2023-02-09T04:57:31.752Z,101657.53
2023-02-09T05:00:01.196Z,101675.44
2023-02-09T05:02:29.106Z,101667.44
2023-02-09T05:04:57.206Z,101669.78
2023-02-09T05:07:26.558Z,101661.00
2023-02-09T05:09:54.418Z,101684.38
2023-02-09T05:12:22.326Z,101649.59
2023-02-09T05:14:50.234Z,101500.25
2023-02-09T05:17:21.120Z,101679.22
2023-02-09T05:19:49.208Z,101680.00
2023-02-09T05:22:17.311Z,101668.88
2023-02-09T05:24:45.185Z,101637.34
2023-02-09T05:27:13.121Z,101661.59
2023-02-09T05:29:41.089Z,101657.56
2023-02-09T05:32:09.054Z,101649.03
2023-02-09T05:34:38.413Z,101654.31
2023-02-09T05:37:06.342Z,101642.97
2023-02-09T05:39:34.233Z,101644.66
2023-02-09T05:42:17.694Z,101639.03
2023-02-09T05:44:46.974Z,101598.66
2023-02-09T05:47:16.833Z,101640.88
2023-02-09T05:49:46.955Z,101634.91
2023-02-09T05:52:16.692Z,101629.06
2023-02-09T05:54:44.891Z,101636.94
2023-02-09T05:57:12.902Z,101625.03
2023-02-09T05:59:40.789Z,101621.53
2023-02-09T06:02:08.663Z,101626.81
2023-02-09T06:04:36.836Z,101618.28
2023-02-09T06:07:06.194Z,101617.50
2023-02-09T06:09:34.312Z,101633.00
2023-02-09T06:12:02.468Z,101600.63
2023-02-09T06:14:30.292Z,101619.19
2023-02-09T06:16:58.152Z,101463.50
2023-02-09T06:19:26.342Z,101606.38
2023-02-09T06:21:54.311Z,101603.78
2023-02-09T06:24:23.766Z,101601.19
2023-02-09T06:26:51.938Z,101600.41
2023-02-09T06:29:19.865Z,101596.13
2023-02-09T06:31:47.998Z,101571.63
2023-02-09T06:34:16.090Z,101586.69
2023-02-09T06:36:44.284Z,101593.53
2023-02-09T06:39:12.497Z,101501.00
2023-02-09T06:41:41.909Z,101561.59
2023-02-09T06:44:09.921Z,101506.97
2023-02-09T06:46:37.867Z,101555.66
2023-02-09T06:49:06.083Z,101457.94
2023-02-09T06:51:34.035Z,101564.41
2023-02-09T06:54:02.060Z,101555.88
2023-02-09T06:56:30.203Z,101554.19
2023-02-09T06:58:59.435Z,101552.50
2023-02-09T07:01:27.269Z,101549.56
2023-02-09T07:03:55.459Z,101549.25
2023-02-09T07:06:23.292Z,101545.75
2023-02-09T07:08:51.769Z,101536.19
2023-02-09T07:11:20.871Z,101524.38
2023-02-09T07:13:48.996Z,101496.06
2023-02-09T07:16:18.244Z,101363.25
2023-02-09T07:18:46.379Z,101530.78
2023-02-09T07:21:18.650Z,101522.69
2023-02-09T07:23:47.572Z,101474.03
2023-02-09T07:26:17.386Z,101506.06
2023-02-09T07:28:45.959Z,101517.41
2023-02-09T07:31:16.266Z,101500.56
2023-02-09T07:33:46.047Z,101508.41
2023-02-09T07:36:16.400Z,101506.16
2023-02-09T07:38:44.777Z,101522.59
2023-02-09T07:41:16.414Z,101491.66
2023-02-09T07:43:44.836Z,101510.56
2023-02-09T07:46:15.512Z,101494.91
2023-02-09T07:48:44.908Z,101490.44
2023-02-09T07:51:15.044Z,101486.94
2023-02-09T07:53:42.900Z,101484.25
2023-02-09T07:56:10.916Z,101478.97
2023-02-09T07:58:39.032Z,101478.84
2023-02-09T08:01:08.930Z,101473.69
2023-02-09T08:03:37.772Z,101478.84
2023-02-09T08:06:13.388Z,101448.63
2023-02-09T08:08:41.253Z,101482.09
2023-02-09T08:11:09.179Z,101466.72
2023-02-09T08:13:41.100Z,101452.75
2023-02-09T08:16:11.490Z,101454.69
2023-02-09T08:18:44.223Z,101451.97
2023-02-09T08:21:17.422Z,101451.97
2023-02-09T08:23:49.495Z,101443.31
2023-02-09T08:26:17.491Z,101445.13
2023-02-09T08:28:45.868Z,101457.25
2023-02-09T08:31:14.994Z,101451.28
2023-02-09T08:33:44.062Z,101451.53
2023-02-09T08:36:14.458Z,101454.22
2023-02-09T08:38:43.007Z,101457.81
2023-02-09T08:41:14.007Z,101458.72
2023-02-09T08:43:41.856Z,101464.00
2023-02-09T08:46:12.161Z,101458.13
2023-02-09T08:48:42.787Z,101401.19
2023-02-09T08:51:14.687Z,101453.97
2023-02-09T08:53:43.412Z,101434.41
2023-02-09T08:56:11.725Z,101471.28
2023-02-09T08:58:39.839Z,101327.53
2023-02-09T09:01:07.815Z,101458.03
2023-02-09T09:03:35.803Z,101465.44
2023-02-09T09:06:05.638Z,101458.03
2023-02-09T09:08:36.200Z,101469.03
2023-02-09T09:11:06.611Z,101467.34
2023-02-09T09:13:35.091Z,101467.47
2023-02-09T09:16:05.114Z,101464.19
2023-02-09T09:18:33.433Z,101452.41
2023-02-09T09:21:01.472Z,101479.81
2023-02-09T09:23:29.332Z,101465.34
2023-02-09T09:26:03.259Z,101479.81
2023-02-09T09:28:31.812Z,101495.34
2023-02-09T09:31:06.040Z,101460.81
2023-02-09T09:33:34.321Z,101440.22
2023-02-09T09:36:02.568Z,101455.84
2023-02-09T09:38:30.771Z,101447.41
2023-02-09T09:40:58.822Z,101439.75
2023-02-09T09:43:32.721Z,101425.25
2023-02-09T09:46:01.833Z,101414.09
2023-02-09T09:48:38.852Z,101369.72
2023-02-09T09:51:13.313Z,101395.19
2023-02-09T09:53:45.135Z,101397.41
2023-02-09T09:56:15.387Z,101384.56
2023-02-09T09:58:45.708Z,101384.69
2023-02-09T10:01:15.489Z,101360.88
2023-02-09T10:03:43.590Z,101376.44
2023-02-09T10:06:16.445Z,101360.50
2023-02-09T10:08:47.208Z,101374.06
2023-02-09T10:11:17.633Z,101370.69
2023-02-09T10:13:50.863Z,101377.28
2023-02-09T10:16:20.797Z,101372.97
2023-02-09T10:18:51.693Z,101366.94
2023-02-09T10:21:20.022Z,101341.59
2023-02-09T10:23:50.408Z,101363.34
2023-02-09T10:26:25.033Z,101366.03
2023-02-09T10:28:56.679Z,101349.66
2023-02-09T10:31:42.652Z,101328.84
2023-02-09T10:34:16.662Z,101337.63
2023-02-09T10:36:49.677Z,101266.09
2023-02-09T10:39:20.766Z,101342.13
2023-02-09T10:41:51.267Z,101330.84
2023-02-09T10:44:25.947Z,101330.59
2023-02-09T10:47:10.914Z,101325.78
2023-02-09T10:49:40.132Z,101170.06
2023-02-09T10:52:16.306Z,101326.69
2023-02-09T10:54:48.987Z,101320.72
2023-02-09T10:57:28.906Z,101304.19
2023-02-09T11:00:00.581Z,101261.47
2023-02-09T11:02:38.106Z,101225.69
2023-02-09T11:05:34.084Z,101323.91
2023-02-09T11:08:15.658Z,101225.38
2023-02-09T11:10:50.668Z,101326.28
2023-02-09T11:13:22.367Z,101329.09
2023-02-09T11:16:09.682Z,101335.69
2023-02-09T11:18:38.155Z,101322.94
2023-02-09T11:21:12.043Z,101325.72
2023-02-09T11:23:52.313Z,101275.81
2023-02-09T11:26:32.632Z,101308.50
2023-02-09T11:29:07.714Z,101286.06
2023-02-09T11:31:51.267Z,101281.69
2023-02-09T11:34:35.940Z,101236.06
2023-02-09T11:37:16.494Z,101269.16
2023-02-09T11:39:52.023Z,101267.44
2023-02-09T11:42:43.223Z,101214.59
2023-02-09T11:45:15.764Z,101241.06
2023-02-09T11:47:54.919Z,101272.84
2023-02-09T11:50:28.179Z,101273.72
2023-02-09T11:53:00.454Z,101259.09
2023-02-09T11:55:32.990Z,101255.69
2023-02-09T11:58:10.618Z,101213.16
2023-02-09T12:00:54.838Z,101241.25
2023-02-09T12:03:29.202Z,101259.47
2023-02-09T12:05:57.631Z,101254.41
2023-02-09T12:08:38.213Z,101133.16
2023-02-09T12:11:20.633Z,101259.97
2023-02-09T12:14:10.092Z,101249.81
2023-02-09T12:16:42.387Z,101255.00
2023-02-09T12:19:27.370Z,101250.00
2023-02-09T12:21:55.507Z,101103.41
2023-02-09T12:24:35.319Z,101239.63
2023-02-09T12:27:03.337Z,101241.34
2023-02-09T12:29:40.052Z,101262.97
2023-02-09T12:32:25.655Z,101250.81
2023-02-09T12:34:56.925Z,101247.31
2023-02-09T12:37:28.049Z,101233.38
2023-02-09T12:40:25.017Z,101232.56
2023-02-09T12:43:12.795Z,101233.47
2023-02-09T12:45:43.034Z,101198.50
2023-02-09T12:48:19.368Z,101235.25
2023-02-09T12:50:54.802Z,101106.28
2023-02-09T12:53:45.276Z,101234.44
2023-02-09T12:56:34.597Z,101227.28
2023-02-09T12:59:17.035Z,101208.84
2023-02-09T13:02:25.289Z,101218.09
2023-02-09T13:05:03.098Z,101211.84
2023-02-09T13:07:50.488Z,101211.94
2023-02-09T13:10:25.761Z,101202.97
2023-02-09T13:12:58.307Z,101174.41
2023-02-09T13:15:30.271Z,101122.16
2023-02-09T13:18:15.207Z,101224.78
2023-02-09T13:21:17.032Z,101223.09
2023-02-09T13:24:00.596Z,101209.34
2023-02-09T13:26:32.831Z,101194.91
2023-02-09T13:29:20.809Z,101211.03
2023-02-09T13:32:00.251Z,101213.72
2023-02-09T13:34:35.466Z,101207.75
2023-02-09T13:37:16.347Z,101222.69
2023-02-09T13:39:45.920Z,101207.13
2023-02-09T13:42:20.897Z,101199.16
2023-02-09T13:44:52.513Z,101208.03
2023-02-09T13:47:21.181Z,101196.56
2023-02-09T13:50:00.585Z,101190.78
2023-02-09T13:52:36.430Z,101168.09
2023-02-09T13:55:13.487Z,101199.56
2023-02-09T13:57:44.695Z,101174.44
2023-02-09T14:00:25.179Z,101182.03
2023-02-09T14:02:55.999Z,101174.44
2023-02-09T14:05:31.829Z,101128.44
2023-02-09T14:08:00.799Z,101146.91
2023-02-09T14:10:30.758Z,101143.34
2023-02-09T14:13:04.027Z,101127.09
2023-02-09T14:15:55.367Z,101134.06
2023-02-09T14:18:30.436Z,101141.75
2023-02-09T14:21:15.246Z,101141.84
2023-02-09T14:23:45.887Z,101138.25
2023-02-09T14:26:26.766Z,101141.94
2023-02-09T14:29:06.186Z,101111.16
2023-02-09T14:31:36.511Z,101130.47
2023-02-09T14:34:04.574Z,101118.31
2023-02-09T14:36:34.792Z,101118.22
2023-02-09T14:39:14.080Z,101115.63
2023-02-09T14:41:56.622Z,101104.56
2023-02-09T14:44:24.971Z,101098.69
2023-02-09T14:46:54.305Z,101084.91
2023-02-09T14:49:23.436Z,101074.53
2023-02-09T14:51:57.520Z,101083.13
2023-02-09T14:54:27.873Z,101068.47
2023-02-09T14:56:58.867Z,101070.97
2023-02-09T14:59:26.702Z,101073.47
2023-02-09T15:01:56.863Z,101051.66
2023-02-09T15:04:24.829Z,101044.13
2023-02-09T15:07:01.643Z,101052.19
2023-02-09T15:09:35.237Z,101043.31
2023-02-09T15:12:08.139Z,101034.09
2023-02-09T15:14:43.643Z,101036.41
2023-02-09T15:17:15.008Z,101049.47
2023-02-09T15:19:43.438Z,101044.09
2023-02-09T15:22:14.992Z,101034.44
2023-02-09T15:24:43.681Z,101044.50
2023-02-09T15:27:26.622Z,101029.59
2023-02-09T15:29:57.504Z,100947.03
2023-02-09T15:32:27.551Z,101030.81
2023-02-09T15:34:55.657Z,101036.59
2023-02-09T15:37:26.670Z,101003.34
2023-02-09T15:39:57.084Z,101039.19
2023-02-09T15:42:52.222Z,101027.03
2023-02-09T15:45:40.293Z,101028.44
2023-02-09T15:48:09.602Z,101022.19
2023-02-09T15:50:40.222Z,101027.16
2023-02-09T15:53:12.329Z,101033.94
2023-02-09T15:55:41.001Z,101014.78
2023-02-09T15:58:15.016Z,101031.09
2023-02-09T16:00:43.369Z,101002.25
2023-02-09T16:03:16.781Z,101001.25
2023-02-09T16:05:46.157Z,100997.16
2023-02-09T16:08:19.142Z,100984.44
2023-02-09T16:10:47.906Z,100975.38
2023-02-09T16:13:19.892Z,100966.44
2023-02-09T16:15:48.554Z,100978.94
2023-02-09T16:18:16.502Z,100970.91
2023-02-09T16:20:48.097Z,100972.69
2023-02-09T16:23:20.798Z,100909.19
2023-02-09T16:25:50.509Z,100954.59
2023-02-09T16:28:21.181Z,100953.69
2023-02-09T16:30:52.001Z,100954.28
2023-02-09T16:33:20.060Z,100954.19
2023-02-09T16:35:53.721Z,100945.34
2023-02-09T16:38:23.598Z,100943.06
2023-02-09T16:40:51.954Z,100944.75
2023-02-09T16:43:22.007Z,100920.97
2023-02-09T16:46:02.795Z,100774.22
2023-02-09T16:48:34.714Z,100935.28
2023-02-09T16:51:03.363Z,100924.97
2023-02-09T16:53:33.750Z,100932.69
2023-02-09T16:56:02.255Z,100870.81
2023-02-09T16:58:32.410Z,100917.41
2023-02-09T17:01:00.300Z,100879.53
2023-02-09T17:03:34.786Z,100929.31
2023-02-09T17:06:03.459Z,100919.84
2023-02-09T17:08:33.013Z,100915.47
2023-02-09T17:11:02.362Z,100888.25
2023-02-09T17:13:32.238Z,100902.25
2023-02-09T17:16:02.316Z,100916.84
2023-02-09T17:18:33.466Z,100907.47
2023-02-09T17:21:03.975Z,100902.56
2023-02-09T17:23:32.151Z,100889.78
2023-02-09T17:26:00.674Z,100862.69
2023-02-09T17:28:29.508Z,100870.06
2023-02-09T17:31:02.169Z,100845.28
2023-02-09T17:33:33.269Z,100858.56
2023-02-09T17:38:50.077Z,100852.41
2023-02-09T17:41:20.099Z,100845.63
2023-02-09T17:43:48.960Z,100754.53
2023-02-09T17:46:20.204Z,100828.31
2023-02-09T17:48:49.140Z,100811.00
2023-02-09T17:51:21.530Z,100814.22
2023-02-09T17:53:49.440Z,100808.16
2023-02-09T17:56:18.488Z,100817.69
2023-02-09T17:58:46.668Z,100791.72
2023-02-09T18:01:26.424Z,100738.34
2023-02-09T18:03:55.409Z,100688.44
2023-02-09T18:06:30.005Z,100756.13
2023-02-09T18:08:57.968Z,100761.09
2023-02-09T18:11:41.028Z,100687.94
2023-02-09T18:14:10.380Z,100758.34
2023-02-09T18:16:41.261Z,100744.59
2023-02-09T18:19:09.734Z,100741.38
2023-02-09T18:21:38.454Z,100729.44
2023-02-09T18:24:07.748Z,100717.56
2023-02-09T18:26:35.605Z,100690.06
2023-02-09T18:29:03.511Z,100700.34
2023-02-09T18:31:31.735Z,100685.31
2023-02-09T18:34:00.949Z,100702.88
2023-02-09T18:36:28.904Z,100685.03
2023-02-09T18:38:57.021Z,100688.84
2023-02-09T18:41:24.986Z,100686.53
2023-02-09T18:43:54.441Z,100668.13
2023-02-09T18:46:24.528Z,100657.06
2023-02-09T18:48:52.460Z,100613.50
2023-02-09T18:51:22.269Z,100644.63
2023-02-09T18:53:51.249Z,100473.47
2023-02-09T18:56:20.363Z,100604.97
2023-02-09T18:58:49.119Z,100602.84
2023-02-09T19:01:17.394Z,100483.41
2023-02-09T19:03:45.232Z,100591.69
2023-02-09T19:06:13.942Z,100559.44
2023-02-09T19:08:43.305Z,100575.66
2023-02-09T19:11:16.302Z,100574.69
2023-02-09T19:14:04.323Z,100578.91
2023-02-09T19:16:32.391Z,100570.16
2023-02-09T19:19:00.830Z,100559.31
2023-02-09T19:21:29.474Z,100562.81
2023-02-09T19:23:58.780Z,100569.84
2023-02-09T19:26:26.679Z,100507.53
2023-02-09T19:28:57.411Z,100525.66
2023-02-09T19:31:25.846Z,100528.25
2023-02-09T19:33:56.394Z,100483.44
2023-02-09T19:36:24.590Z,100515.41
2023-02-09T19:38:52.618Z,100513.78
2023-02-09T19:41:23.541Z,100510.13
2023-02-09T19:43:56.161Z,100517.41
2023-02-09T19:46:24.134Z,100482.47
2023-02-09T19:48:53.696Z,100486.25
2023-02-09T19:51:21.687Z,100491.53
2023-02-09T19:53:50.287Z,100472.34
2023-02-09T19:56:20.777Z,100467.25
2023-02-09T19:58:50.691Z,100457.03
2023-02-09T20:01:19.420Z,100466.59
2023-02-09T20:03:48.147Z,100456.38
2023-02-09T20:06:17.602Z,100439.41
2023-02-09T20:08:45.489Z,100437.22
2023-02-09T20:11:17.763Z,100417.88
2023-02-09T20:13:46.854Z,100385.44
2023-02-09T20:16:20.897Z,100396.59
2023-02-09T20:18:49.086Z,100386.31
2023-02-09T20:21:18.727Z,100383.88
2023-02-09T20:23:47.322Z,100370.69
2023-02-09T20:26:18.356Z,100347.53
2023-02-09T20:28:46.240Z,100363.06
2023-02-09T20:31:15.853Z,100356.13
2023-02-09T20:33:45.308Z,100345.75
2023-02-09T20:36:13.544Z,100328.28
2023-02-09T20:38:41.694Z,100331.69
2023-02-09T20:41:09.975Z,100312.75
2023-02-09T20:43:55.397Z,100291.28
2023-02-09T20:46:55.382Z,100301.66
2023-02-09T20:49:29.935Z,100288.84
2023-02-09T20:51:58.459Z,100249.41
2023-02-09T20:54:26.360Z,100254.38
2023-02-09T20:56:54.298Z,100205.47
2023-02-09T20:59:23.685Z,100223.31
2023-02-09T21:01:52.287Z,100220.03
2023-02-09T21:04:20.183Z,100220.13
2023-02-09T21:06:49.613Z,100209.81
2023-02-09T21:09:17.520Z,100177.28
2023-02-09T21:11:45.448Z,100205.97
2023-02-09T21:14:21.992Z,100205.38
2023-02-09T21:17:00.664Z,100211.66
2023-02-09T21:19:28.705Z,100186.78
2023-02-09T21:21:58.090Z,100233.47
2023-02-09T21:24:26.030Z,100187.88
2023-02-09T21:26:54.152Z,100174.03
2023-02-09T21:29:21.962Z,100179.22
2023-02-09T21:31:51.375Z,100160.94
2023-02-09T21:34:19.615Z,100165.84
2023-02-09T21:36:47.754Z,100102.25
2023-02-09T21:39:16.950Z,100143.47
2023-02-09T21:42:02.678Z,100144.56
2023-02-09T21:44:30.709Z,100101.47
2023-02-09T21:47:00.579Z,100113.34
2023-02-09T21:49:31.668Z,100131.59
2023-02-09T21:51:59.790Z,100101.75
2023-02-09T21:54:33.364Z,100105.69
2023-02-09T21:57:01.312Z,100069.69
2023-02-09T21:59:29.430Z,100080.25
2023-02-09T22:01:57.421Z,100081.88
2023-02-09T22:04:25.818Z,100088.09
2023-02-09T22:06:53.698Z,100081.81
2023-02-09T22:09:23.445Z,100083.09
2023-02-09T22:11:52.725Z,100085.34
2023-02-09T22:14:20.532Z,100036.56
2023-02-09T22:16:48.604Z,100135.56
2023-02-09T22:19:16.703Z,100097.75
2023-02-09T22:21:44.672Z,100107.16
2023-02-09T22:24:14.196Z,100084.25
2023-02-09T22:26:42.008Z,100084.66
2023-02-09T22:29:13.783Z,100094.94
2023-02-09T22:31:42.102Z,100074.97
2023-02-09T22:34:10.060Z,100107.91
2023-02-09T22:36:39.791Z,100056.72
2023-02-09T22:39:08.740Z,100062.72
2023-02-09T22:41:36.784Z,100102.00
2023-02-09T22:44:07.279Z,100123.09
2023-02-09T22:46:39.508Z,100097.44
2023-02-09T22:49:09.656Z,100098.41
2023-02-09T22:51:37.883Z,100122.06
2023-02-09T22:54:06.710Z,100094.56
2023-02-09T22:56:35.314Z,100097.38
2023-02-09T22:59:03.136Z,100140.69
2023-02-09T23:01:31.763Z,100118.03
2023-02-09T23:04:01.534Z,100104.66
2023-02-09T23:06:30.244Z,100147.16
2023-02-09T23:08:59.990Z,100156.66
2023-02-09T23:11:29.688Z,100232.78
2023-02-09T23:14:11.903Z,100180.25
2023-02-09T23:16:41.645Z,100175.13
2023-02-09T23:19:13.638Z,100187.22
2023-02-09T23:21:43.857Z,100189.72
2023-02-09T23:24:12.296Z,100192.25
2023-02-09T23:26:40.184Z,100203.72
2023-02-09T23:29:10.888Z,100180.88
2023-02-09T23:31:39.436Z,100133.28
2023-02-09T23:34:07.713Z,100184.97
2023-02-09T23:36:37.267Z,100191.38
2023-02-09T23:39:07.089Z,100220.59
2023-02-09T23:41:36.296Z,100213.03
2023-02-09T23:44:04.670Z,100167.31
2023-02-09T23:46:32.675Z,100231.31
2023-02-09T23:49:00.797Z,100229.47
2023-02-09T23:51:31.082Z,100215.28
2023-02-09T23:54:01.719Z,100224.06
2023-02-09T23:56:33.291Z,100238.72
2023-02-09T23:59:01.115Z,100214.53
